Time;durP1;ratioP1;P1;durP2;ratioP2;P2;SDS_P1;SDS_P2;PMS_P1;PMS_P2;Temp;Humidity;BMP_temperature;BMP_pressure;BME280_temperature;BME280_humidity;BME280_pressure;Samples;Min_cycle;Max_cycle;Signal;HPM_P1;HPM_P2
2019/05/29 00:02:24;;;;;;;5;3.8;;;;;;;;;;;;;
2019/05/29 00:04:49;;;;;;;4.8;3.8;;;;;;;;;;;;;
2019/05/29 00:07:14;;;;;;;6.1;4;;;;;;;;;;;;;
2019/05/29 00:09:39;;;;;;;5.5;3.9;;;;;;;;;;;;;
2019/05/29 00:12:12;;;;;;;6.1;4.3;;;;;;;;;;;;;
2019/05/29 00:14:37;;;;;;;5;4;;;;;;;;;;;;;
2019/05/29 00:17:02;;;;;;;4.8;3.8;;;;;;;;;;;;;
2019/05/29 00:19:27;;;;;;;5.7;3.7;;;;;;;;;;;;;
2019/05/29 00:21:53;;;;;;;5.4;4.2;;;;;;;;;;;;;
2019/05/29 00:24:18;;;;;;;5.8;4.2;;;;;;;;;;;;;
2019/05/29 00:26:43;;;;;;;5;3.9;;;;;;;;;;;;;
2019/05/29 00:29:08;;;;;;;5.6;4.3;;;;;;;;;;;;;
2019/05/29 00:31:33;;;;;;;4.6;4.1;;;;;;;;;;;;;
2019/05/29 00:33:58;;;;;;;5.7;4.3;;;;;;;;;;;;;
2019/05/29 00:36:23;;;;;;;6.2;4.6;;;;;;;;;;;;;
2019/05/29 00:38:48;;;;;;;5;4.2;;;;;;;;;;;;;
2019/05/29 00:41:13;;;;;;;5.7;4.3;;;;;;;;;;;;;
2019/05/29 00:43:39;;;;;;;6;4.7;;;;;;;;;;;;;
2019/05/29 00:46:04;;;;;;;5.9;4.4;;;;;;;;;;;;;
2019/05/29 00:48:50;;;;;;;6.1;4.8;;;;;;;11.31;85.55566;957.5717;;;;
2019/05/29 00:51:33;;;;;;;5.1;4.6;;;;;;;11.33;85.76563;957.6403;;;;
2019/05/29 00:54:01;;;;;;;5.6;5;;;;;;;11.27;85.45703;957.6754;;;;
2019/05/29 00:56:26;;;;;;;7.7;5.3;;;;;;;11.32;85.25586;957.5929;;;;
2019/05/29 00:58:54;;;;;;;6.8;5.3;;;;;;;11.33;86.96582;957.6353;;;;
2019/05/29 01:01:19;;;;;;;7.7;5.2;;;;;;;11.38;85.49902;957.6573;;;;
2019/05/29 01:03:44;;;;;;;5.9;5;;;;;;;11.33;85.26953;957.6664;;;;
2019/05/29 01:06:10;;;;;;;7.9;5.4;;;;;;;11.33;85.91699;957.7006;;;;
2019/05/29 01:08:35;;;;;;;5.6;4.8;;;;;;;11.27;85.14355;957.7283;;;;
2019/05/29 01:11:01;;;;;;;6.2;5.4;;;;;;;11.19;85.71582;957.7447;;;;
2019/05/29 01:13:27;;;;;;;6.9;5.1;;;;;;;11.27;86.71289;957.8189;;;;
2019/05/29 01:15:52;;;;;;;7.2;5.8;;;;;;;11.17;86.13867;957.772;;;;
2019/05/29 01:18:17;;;;;;;5.7;5;;;;;;;11.19;86.15527;957.7961;;;;
2019/05/29 01:20:42;;;;;;;7.1;5.5;;;;;;;11.14;86.08691;957.8401;;;;
2019/05/29 01:23:09;;;;;;;9.5;5.9;;;;;;;11.16;86.93164;957.8601;;;;
2019/05/29 01:25:34;;;;;;;6.1;5.5;;;;;;;11.15;86.27344;957.9177;;;;
2019/05/29 01:28:01;;;;;;;6.6;5.5;;;;;;;11.23;86.12598;957.9106;;;;
2019/05/29 01:30:26;;;;;;;6.9;5.4;;;;;;;11.19;86.43066;957.8833;;;;
2019/05/29 01:33:04;;;;;;;6.5;5.8;;;;;;;11.2;86.4668;957.9045;;;;
2019/05/29 01:35:33;;;;;;;6.6;5.6;;;;;;;11.12;86.47363;957.9857;;;;
2019/05/29 01:38:00;;;;;;;6.7;5.8;;;;;;;11.16;87.09375;957.9299;;;;
2019/05/29 01:40:25;;;;;;;7.6;6.1;;;;;;;11.15;86.90918;958.0302;;;;
2019/05/29 01:42:52;;;;;;;7.8;5.9;;;;;;;11.26;86.73438;958.0073;;;;
2019/05/29 01:45:17;;;;;;;7.3;5.7;;;;;;;11.19;86.41895;958.075;;;;
2019/05/29 01:47:42;;;;;;;6.2;5.6;;;;;;;11.15;87.13965;958.0433;;;;
2019/05/29 01:50:08;;;;;;;6.4;5.7;;;;;;;11.19;87.25977;958.0839;;;;
2019/05/29 01:52:33;;;;;;;6.2;5.6;;;;;;;11.2;86.42188;958.0432;;;;
2019/05/29 01:54:58;;;;;;;7.2;5.8;;;;;;;11.12;86.95898;958.0591;;;;
2019/05/29 01:57:25;;;;;;;6.7;5.6;;;;;;;11.23;86.84277;958.1537;;;;
2019/05/29 02:00:00;;;;;;;6.3;5.7;;;;;;;11.26;86.51563;958.1028;;;;
2019/05/29 02:02:30;;;;;;;7;6.1;;;;;;;11.24;87.06348;958.1921;;;;
2019/05/29 02:04:55;;;;;;;7.7;5.8;;;;;;;11.09;86.93066;958.1834;;;;
2019/05/29 02:07:20;;;;;;;8.4;6.2;;;;;;;11.03;86.77832;958.2551;;;;
2019/05/29 02:09:47;;;;;;;7.6;6.4;;;;;;;11.1;87.15137;958.1789;;;;
2019/05/29 02:12:12;;;;;;;6.8;6.1;;;;;;;11.01;86.68262;958.2526;;;;
2019/05/29 02:14:38;;;;;;;6.6;6;;;;;;;10.95;87.22461;958.2492;;;;
2019/05/29 02:17:10;;;;;;;7.8;6.1;;;;;;;10.9;86.9375;958.2321;;;;
2019/05/29 02:19:52;;;;;;;7.1;6.2;;;;;;;10.95;87.28223;958.31;;;;
2019/05/29 02:22:17;;;;;;;8.2;6.1;;;;;;;10.94;86.77148;958.2586;;;;
2019/05/29 02:24:44;;;;;;;8.6;6.4;;;;;;;10.97;86.98633;958.317;;;;
2019/05/29 02:27:09;;;;;;;6.7;5.9;;;;;;;11.03;87.10059;958.3024;;;;
2019/05/29 02:29:48;;;;;;;7.2;6.4;;;;;;;10.84;87.20313;958.298;;;;
2019/05/29 02:32:14;;;;;;;7.5;6.4;;;;;;;10.79;87.68555;958.3077;;;;
2019/05/29 02:34:51;;;;;;;6.9;6.1;;;;;;;10.84;87.64063;958.302;;;;
2019/05/29 02:37:16;;;;;;;6.9;6.2;;;;;;;10.86;87.81543;958.3747;;;;
2019/05/29 02:39:41;;;;;;;7.8;6.4;;;;;;;10.8;87.6543;958.3276;;;;
2019/05/29 02:42:06;;;;;;;7.2;6.1;;;;;;;10.66;87.86914;958.427;;;;
2019/05/29 02:44:31;;;;;;;7.4;6.5;;;;;;;10.67;88.35254;958.4174;;;;
2019/05/29 02:46:57;;;;;;;8.8;6.8;;;;;;;10.61;88.16895;958.4661;;;;
2019/05/29 02:49:22;;;;;;;9.1;6.8;;;;;;;10.71;87.7168;958.4883;;;;
2019/05/29 02:51:47;;;;;;;6.7;6;;;;;;;10.71;87.74219;958.5356;;;;
2019/05/29 02:54:13;;;;;;;7.9;7;;;;;;;10.56;88.2041;958.5754;;;;
2019/05/29 02:56:38;;;;;;;7.6;6.5;;;;;;;10.63;88.08008;958.5259;;;;
2019/05/29 02:59:03;;;;;;;9.3;6.9;;;;;;;10.62;88.41211;958.5829;;;;
2019/05/29 03:01:42;;;;;;;7.9;6.7;;;;;;;10.61;87.67383;958.5883;;;;
2019/05/29 03:04:09;;;;;;;7.8;6.8;;;;;;;10.51;87.80176;958.6884;;;;
2019/05/29 03:06:34;;;;;;;7.6;6.8;;;;;;;10.58;88.28809;958.6692;;;;
2019/05/29 03:08:59;;;;;;;7.7;6.4;;;;;;;10.61;87.82324;958.6837;;;;
2019/05/29 03:11:32;;;;;;;9.4;6.9;;;;;;;10.58;87.98926;958.7564;;;;
2019/05/29 03:13:57;;;;;;;8.6;6.9;;;;;;;10.5;87.84766;958.6934;;;;
2019/05/29 03:16:23;;;;;;;8.1;6.5;;;;;;;10.51;87.97461;958.8359;;;;
2019/05/29 03:18:52;;;;;;;7.7;6.9;;;;;;;10.47;88.3584;958.7701;;;;
2019/05/29 03:21:17;;;;;;;7.1;6.5;;;;;;;;;;;;;
2019/05/29 03:23:42;;;;;;;8.6;6.6;;;;;;;;;;;;;
2019/05/29 03:26:08;;;;;;;7.9;7.1;;;;;;;;;;;;;
2019/05/29 03:28:33;;;;;;;7.1;6.4;;;;;;;;;;;;;
2019/05/29 03:30:59;;;;;;;7.6;6.6;;;;;;;;;;;;;
2019/05/29 03:33:24;;;;;;;8.6;6.7;;;;;;;;;;;;;
2019/05/29 03:35:49;;;;;;;8.4;6.8;;;;;;;;;;;;;
2019/05/29 03:38:14;;;;;;;8;6.8;;;;;;;;;;;;;
2019/05/29 03:40:39;;;;;;;7.5;6.7;;;;;;;;;;;;;
2019/05/29 03:43:05;;;;;;;7.5;6.6;;;;;;;;;;;;;
2019/05/29 03:45:30;;;;;;;9.1;6.7;;;;;;;;;;;;;
2019/05/29 03:47:56;;;;;;;7.9;6.5;;;;;;;;;;;;;
2019/05/29 03:50:21;;;;;;;7.4;6.7;;;;;;;;;;;;;
2019/05/29 03:52:46;;;;;;;8.4;7.1;;;;;;;;;;;;;
2019/05/29 03:55:14;;;;;;;8.4;6.8;;;;;;;;;;;;;
2019/05/29 03:57:39;;;;;;;7.4;6.7;;;;;;;;;;;;;
2019/05/29 04:02:27;;;;;;;7.5;6.8;;;;;;;10.6;87.70703;959.4146;;;;
2019/05/29 04:04:56;;;;;;;7.3;6.3;;;;;;;10.73;87.5957;959.4812;;;;
2019/05/29 04:07:23;;;;;;;7;6.2;;;;;;;10.72;87.3623;959.5039;;;;
2019/05/29 04:09:50;;;;;;;7.9;6.3;;;;;;;10.78;86.62402;959.5082;;;;
2019/05/29 04:12:15;;;;;;;9.5;6.1;;;;;;;10.89;85.57617;959.5723;;;;
2019/05/29 04:14:41;;;;;;;6.9;5.9;;;;;;;10.79;85.71777;959.598;;;;
2019/05/29 04:17:07;;;;;;;7.5;5.5;;;;;;;10.82;85.28613;959.6735;;;;
2019/05/29 04:19:32;;;;;;;8;5.8;;;;;;;10.88;85.23926;959.6819;;;;
2019/05/29 04:21:58;;;;;;;6.4;5.2;;;;;;;10.89;85.28809;959.7198;;;;
2019/05/29 04:24:23;;;;;;;6.6;5.2;;;;;;;10.98;84.79883;959.7117;;;;
2019/05/29 04:26:50;;;;;;;7.2;5.4;;;;;;;10.96;85.0127;959.7878;;;;
2019/05/29 04:29:15;;;;;;;6.9;5.3;;;;;;;10.95;84.85156;959.7103;;;;
2019/05/29 04:31:40;;;;;;;6.9;5.5;;;;;;;10.91;85.13281;959.7958;;;;
2019/05/29 04:34:05;;;;;;;6.1;5.3;;;;;;;10.96;84.44824;959.7878;;;;
2019/05/29 04:36:30;;;;;;;5.9;5.2;;;;;;;10.99;85.25;959.8846;;;;
2019/05/29 04:38:56;;;;;;;7.3;5.2;;;;;;;11.04;84.85742;959.9109;;;;
2019/05/29 04:41:39;;;;;;;6;5.4;;;;;;;10.99;84.01563;959.9376;;;;
2019/05/29 04:44:19;;;;;;;8.1;5.2;;;;;;;11.13;83.89355;959.9292;;;;
2019/05/29 04:46:52;;;;;;;7.9;5.4;;;;;;;11.05;84.35254;959.9794;;;;
2019/05/29 04:49:17;;;;;;;6;5.4;;;;;;;11.07;84.04688;960.0558;;;;
2019/05/29 04:51:43;;;;;;;6.5;5.3;;;;;;;11.09;83.96777;960.024;;;;
2019/05/29 04:54:19;;;;;;;10.5;5.4;;;;;;;11.17;83.37402;960.1121;;;;
2019/05/29 04:56:47;;;;;;;7.3;5.3;;;;;;;11.16;83.70508;960.1047;;;;
2019/05/29 04:59:12;;;;;;;6.8;5.3;;;;;;;11.03;84.0127;960.1078;;;;
2019/05/29 05:01:38;;;;;;;7.3;5.2;;;;;;;11.07;83.60742;960.1169;;;;
2019/05/29 05:04:05;;;;;;;6.9;5.3;;;;;;;11.07;82.87109;960.2254;;;;
2019/05/29 05:06:41;;;;;;;7.7;5.3;;;;;;;11.22;83.15234;960.1905;;;;
2019/05/29 05:09:07;;;;;;;7.5;5.8;;;;;;;11.26;83.11328;960.2482;;;;
2019/05/29 05:11:36;;;;;;;6.5;5.5;;;;;;;11.08;83.34375;960.2508;;;;
2019/05/29 05:14:04;;;;;;;7.8;6.3;;;;;;;11.25;83.19043;960.3057;;;;
2019/05/29 05:16:29;;;;;;;10.2;6.6;;;;;;;11.29;82.78516;960.3278;;;;
2019/05/29 05:18:55;;;;;;;7.6;6.3;;;;;;;11.32;83.37695;960.3994;;;;
2019/05/29 05:21:34;;;;;;;6.8;6.1;;;;;;;11.26;82.46875;960.4;;;;
2019/05/29 05:23:59;;;;;;;8.2;6.9;;;;;;;11.18;83.32813;960.4595;;;;
2019/05/29 05:26:33;;;;;;;7.5;6.4;;;;;;;11.3;83.00684;960.4528;;;;
2019/05/29 05:28:59;;;;;;;9;6.7;;;;;;;11.45;82.05371;960.5483;;;;
2019/05/29 05:31:24;;;;;;;6.8;6;;;;;;;11.48;81.90918;960.5374;;;;
2019/05/29 05:33:49;;;;;;;7.5;6;;;;;;;11.57;82.07715;960.5463;;;;
2019/05/29 05:36:14;;;;;;;9.6;7;;;;;;;11.43;81.37109;960.6111;;;;
2019/05/29 05:38:39;;;;;;;8.4;6.7;;;;;;;11.51;82.59473;960.6612;;;;
2019/05/29 05:41:05;;;;;;;7.7;6.7;;;;;;;11.54;81.15918;960.6584;;;;
2019/05/29 05:43:30;;;;;;;8.5;6.9;;;;;;;11.45;80.62305;960.692;;;;
2019/05/29 05:45:55;;;;;;;8.1;6.9;;;;;;;11.47;80.96289;960.7251;;;;
2019/05/29 05:48:34;;;;;;;8.5;6.9;;;;;;;11.51;82.07715;960.7869;;;;
2019/05/29 05:51:01;;;;;;;8;7.1;;;;;;;11.34;82.00977;960.824;;;;
2019/05/29 05:53:26;;;;;;;7.6;6.8;;;;;;;11.34;81.11035;960.8502;;;;
2019/05/29 05:55:51;;;;;;;8.2;7;;;;;;;11.43;81.51953;960.8681;;;;
2019/05/29 05:58:16;;;;;;;7.1;6.3;;;;;;;11.44;81.83398;960.9628;;;;
2019/05/29 06:00:46;;;;;;;7.6;6.7;;;;;;;11.39;80.2793;960.8582;;;;
2019/05/29 06:03:18;;;;;;;8.7;7.8;;;;;;;11.37;81.25391;960.8912;;;;
2019/05/29 06:05:44;;;;;;;8.3;7.1;;;;;;;11.42;79.85742;961.0252;;;;
2019/05/29 06:08:29;;;;;;;8.1;7.2;;;;;;;11.25;80.38965;960.9714;;;;
2019/05/29 06:10:56;;;;;;;8.6;7.6;;;;;;;11.42;81.37988;960.9346;;;;
2019/05/29 06:13:21;;;;;;;9.7;7.9;;;;;;;11.48;79.98242;960.9381;;;;
2019/05/29 06:15:46;;;;;;;7.7;6.8;;;;;;;11.66;80.26953;960.9478;;;;
2019/05/29 06:18:12;;;;;;;8.3;7.4;;;;;;;11.55;79.36328;960.9666;;;;
2019/05/29 06:20:37;;;;;;;10.9;7.8;;;;;;;11.4;78.73438;960.9973;;;;
2019/05/29 06:23:02;;;;;;;9.6;8.6;;;;;;;11.5;79.13379;961.0358;;;;
2019/05/29 06:25:27;;;;;;;9.5;8.5;;;;;;;11.66;79.44043;961.0083;;;;
2019/05/29 06:27:52;;;;;;;9.4;8.4;;;;;;;11.37;79.70898;961.0478;;;;
2019/05/29 06:30:18;;;;;;;9.3;8.4;;;;;;;11.52;80.08301;961.0214;;;;
2019/05/29 06:32:58;;;;;;;8.8;7.9;;;;;;;11.63;78.83398;961.0117;;;;
2019/05/29 06:35:24;;;;;;;8.8;7.9;;;;;;;11.83;78.80371;961.0847;;;;
2019/05/29 06:37:49;;;;;;;9;8.1;;;;;;;11.81;79.24902;961.1169;;;;
2019/05/29 06:40:23;;;;;;;8;7.2;;;;;;;11.83;77.27734;961.1508;;;;
2019/05/29 06:42:52;;;;;;;8.1;7.3;;;;;;;11.68;78.60156;961.1678;;;;
2019/05/29 06:45:29;;;;;;;8.7;7;;;;;;;11.75;78.11816;961.1616;;;;
2019/05/29 06:48:00;;;;;;;8.6;7.5;;;;;;;11.65;78.36621;961.1445;;;;
2019/05/29 06:50:31;;;;;;;7.5;6.8;;;;;;;11.74;77.69922;961.2154;;;;
2019/05/29 06:53:02;;;;;;;8.7;6.6;;;;;;;11.79;76.43945;961.2808;;;;
2019/05/29 06:55:27;;;;;;;7.5;6.8;;;;;;;11.81;76.49023;961.3308;;;;
2019/05/29 06:57:52;;;;;;;7.2;6.5;;;;;;;11.81;77.56348;961.361;;;;
2019/05/29 07:00:17;;;;;;;7.4;6.6;;;;;;;11.73;76.83203;961.3949;;;;
2019/05/29 07:02:46;;;;;;;7.6;6.8;;;;;;;11.78;77.5459;961.3858;;;;
2019/05/29 07:05:12;;;;;;;7.3;6.4;;;;;;;11.77;76.96875;961.3686;;;;
2019/05/29 07:07:37;;;;;;;6.9;6.2;;;;;;;12.02;78.0166;961.4081;;;;
2019/05/29 07:10:03;;;;;;;8.1;6.7;;;;;;;11.83;76.89746;961.4333;;;;
2019/05/29 07:12:28;;;;;;;7.5;6.4;;;;;;;11.92;76.44043;961.4735;;;;
2019/05/29 07:15:10;;;;;;;6.7;5.9;;;;;;;12.21;77.08105;961.6083;;;;
2019/05/29 07:17:52;;;;;;;7.1;6.4;;;;;;;12.05;75.86328;961.6096;;;;
2019/05/29 07:20:18;;;;;;;6.9;6.2;;;;;;;11.93;76.44141;961.5773;;;;
2019/05/29 07:22:47;;;;;;;7.5;6.8;;;;;;;12.12;74.48828;961.6305;;;;
2019/05/29 07:25:19;;;;;;;7.9;6.8;;;;;;;12.09;75.7998;961.6635;;;;
2019/05/29 07:27:45;;;;;;;7.2;6.5;;;;;;;12.17;74.10449;961.6948;;;;
2019/05/29 07:30:23;;;;;;;6.6;6;;;;;;;12.2;75.56445;961.6572;;;;
2019/05/29 07:33:08;;;;;;;6.9;6.3;;;;;;;12.18;73.7832;961.7548;;;;
2019/05/29 07:35:33;;;;;;;6.8;6.2;;;;;;;12.31;74.47559;961.7952;;;;
2019/05/29 07:38:07;;;;;;;7.2;6.5;;;;;;;12.54;74.04004;961.7703;;;;
2019/05/29 07:40:32;;;;;;;6.6;5.9;;;;;;;12.71;72.68164;961.8375;;;;
2019/05/29 07:42:57;;;;;;;7.2;6.5;;;;;;;12.93;72.61426;961.883;;;;
2019/05/29 07:45:22;;;;;;;7.2;6.5;;;;;;;12.71;72.87793;961.82;;;;
2019/05/29 07:47:47;;;;;;;7.1;6.4;;;;;;;12.43;73.35254;961.793;;;;
2019/05/29 07:50:12;;;;;;;6.8;6.2;;;;;;;12.7;71.1416;961.869;;;;
2019/05/29 07:52:37;;;;;;;6.9;6.2;;;;;;;12.58;72.32324;961.8279;;;;
2019/05/29 07:55:02;;;;;;;6.3;5.8;;;;;;;12.54;71.39258;961.8136;;;;
2019/05/29 07:57:28;;;;;;;6.6;5.9;;;;;;;12.53;71.53125;961.8103;;;;
2019/05/29 07:59:53;;;;;;;7.3;6.5;;;;;;;12.95;71.64551;961.9197;;;;
2019/05/29 08:02:34;;;;;;;7.6;6.8;;;;;;;13.03;73.96191;961.8777;;;;
2019/05/29 08:05:04;;;;;;;7.6;6.8;;;;;;;12.9;70.82617;961.9553;;;;
2019/05/29 08:07:29;;;;;;;7.7;7;;;;;;;12.82;73.625;961.9238;;;;
2019/05/29 08:09:54;;;;;;;6.9;6.3;;;;;;;12.93;72.81152;961.9656;;;;
2019/05/29 08:12:19;;;;;;;7.1;6.4;;;;;;;12.92;73.67578;961.9709;;;;
2019/05/29 08:14:51;;;;;;;6.9;6.3;;;;;;;12.85;73.6543;961.9512;;;;
2019/05/29 08:17:16;;;;;;;7.3;6.5;;;;;;;13.06;70.70215;962.0359;;;;
2019/05/29 08:19:41;;;;;;;7.3;6.5;;;;;;;13.2;69.9502;962.0886;;;;
2019/05/29 08:22:06;;;;;;;7.1;6.4;;;;;;;12.95;71.95801;962.0637;;;;
2019/05/29 08:24:31;;;;;;;7.3;6.6;;;;;;;12.78;71.40918;962.1188;;;;
2019/05/29 08:27:06;;;;;;;6.9;6.2;;;;;;;13.21;70.91211;962.105;;;;
2019/05/29 08:29:38;;;;;;;8.6;6.6;;;;;;;12.92;71.02637;962.1451;;;;
2019/05/29 08:32:05;;;;;;;7;6.3;;;;;;;13;71.78125;962.1505;;;;
2019/05/29 08:34:34;;;;;;;7.1;6.4;;;;;;;13.34;70.69141;962.1587;;;;
2019/05/29 08:37:05;;;;;;;7.5;6.5;;;;;;;13.54;69.87598;962.1314;;;;
2019/05/29 08:39:30;;;;;;;7.6;6.9;;;;;;;13.66;69.47852;962.1409;;;;
2019/05/29 08:41:56;;;;;;;7.7;6.9;;;;;;;13.65;68.94531;962.177;;;;
2019/05/29 08:44:21;;;;;;;7.8;7;;;;;;;13.51;68.97949;962.2039;;;;
2019/05/29 08:46:46;;;;;;;7.9;7.1;;;;;;;13.39;69.55176;962.2279;;;;
2019/05/29 08:49:11;;;;;;;8.3;7.1;;;;;;;13.24;69.27344;962.2633;;;;
2019/05/29 08:51:37;;;;;;;7.5;6.8;;;;;;;12.7;71.01465;962.2092;;;;
2019/05/29 08:54:02;;;;;;;7.8;6.7;;;;;;;12.98;70.75977;962.2617;;;;
2019/05/29 08:56:27;;;;;;;7.9;7.1;;;;;;;12.98;71.25684;962.2794;;;;
2019/05/29 08:58:52;;;;;;;8.6;6.9;;;;;;;13.2;71.87012;962.3684;;;;
2019/05/29 09:01:17;;;;;;;7.7;6.9;;;;;;;13.24;73.10547;962.3166;;;;
2019/05/29 09:03:42;;;;;;;8.8;6.9;;;;;;;13.1;69.85156;962.3817;;;;
2019/05/29 09:06:07;;;;;;;6.7;6;;;;;;;13.58;68.37598;962.3414;;;;
2019/05/29 09:08:32;;;;;;;7.8;6.9;;;;;;;13.9;66.5;962.3369;;;;
2019/05/29 09:11:05;;;;;;;7.1;6.3;;;;;;;13.93;67.27148;962.3118;;;;
2019/05/29 09:13:33;;;;;;;6.5;5.9;;;;;;;14.13;67.41895;962.3754;;;;
2019/05/29 09:15:58;;;;;;;6.7;6.1;;;;;;;14.3;64.60156;962.2369;;;;
2019/05/29 09:18:24;;;;;;;6.7;6;;;;;;;13.89;64.96973;962.3074;;;;
2019/05/29 09:20:49;;;;;;;6.4;5.8;;;;;;;14.09;65.72949;962.3579;;;;
2019/05/29 09:23:22;;;;;;;6.4;5.4;;;;;;;14.11;65.75586;962.3734;;;;
2019/05/29 09:25:48;;;;;;;7.7;6.5;;;;;;;13.85;67.44434;962.3723;;;;
2019/05/29 09:28:14;;;;;;;7.6;6.8;;;;;;;13.73;68.06445;962.3619;;;;
2019/05/29 09:30:38;;;;;;;8.2;7.4;;;;;;;13.52;68.4834;962.4475;;;;
2019/05/29 09:33:05;;;;;;;8.1;7.3;;;;;;;13.7;69.90332;962.5217;;;;
2019/05/29 09:35:30;;;;;;;8.5;7.6;;;;;;;13.65;68.6416;962.4661;;;;
2019/05/29 09:37:55;;;;;;;8.2;7.4;;;;;;;13.38;70.58105;962.5389;;;;
2019/05/29 09:40:21;;;;;;;8.3;7.5;;;;;;;13.58;70.04492;962.5858;;;;
2019/05/29 09:42:46;;;;;;;9.1;8.3;;;;;;;13.53;70.90723;962.599;;;;
2019/05/29 09:45:11;;;;;;;9.2;8.2;;;;;;;13.51;70.72852;962.5839;;;;
2019/05/29 09:47:36;;;;;;;8.6;7.8;;;;;;;13.43;72.37207;962.6392;;;;
2019/05/29 09:50:01;;;;;;;9.1;8.2;;;;;;;13.52;70.85938;962.5916;;;;
2019/05/29 09:52:26;;;;;;;8.6;7.7;;;;;;;13.11;71.49805;962.6078;;;;
2019/05/29 09:54:58;;;;;;;8.2;7.5;;;;;;;13.3;70.34766;962.6344;;;;
2019/05/29 09:57:33;;;;;;;8.7;7.8;;;;;;;13.16;70.67188;962.6689;;;;
2019/05/29 10:00:06;;;;;;;8.8;7.9;;;;;;;13.15;72.56934;962.6778;;;;
2019/05/29 10:02:48;;;;;;;9.3;8.2;;;;;;;13.02;72.24805;962.6508;;;;
2019/05/29 10:05:16;;;;;;;8.7;7.9;;;;;;;12.99;71.87109;962.6928;;;;
2019/05/29 10:08:02;;;;;;;8.6;7.7;;;;;;;13.02;73.05664;962.7645;;;;
2019/05/29 10:10:33;;;;;;;8.8;7.9;;;;;;;13;71.90723;962.7183;;;;
2019/05/29 10:12:58;;;;;;;8;7.1;;;;;;;12.9;74.6582;962.7054;;;;
2019/05/29 10:15:24;;;;;;;9.2;7.5;;;;;;;12.91;75.28418;962.7391;;;;
2019/05/29 10:17:49;;;;;;;8.1;7.3;;;;;;;12.71;74.3457;962.7497;;;;
2019/05/29 10:20:14;;;;;;;8.2;7.4;;;;;;;12.54;74.61816;962.8339;;;;
2019/05/29 10:23:01;;;;;;;8.9;8;;;;;;;12.36;76.29785;962.8594;;;;
2019/05/29 10:25:27;;;;;;;10.9;9.9;;;;;;;12.34;79.43652;962.9742;;;;
2019/05/29 10:27:55;;;;;;;11.5;10.4;;;;;;;12.51;81.30566;962.9028;;;;
2019/05/29 10:30:28;;;;;;;11.6;10.4;;;;;;;12.45;80.0127;962.973;;;;
2019/05/29 10:32:53;;;;;;;11.5;10.5;;;;;;;12.39;80.94922;963.0095;;;;
2019/05/29 10:35:18;;;;;;;11.5;10.5;;;;;;;12.29;80.34082;962.9086;;;;
2019/05/29 10:37:43;;;;;;;10.9;10;;;;;;;12.44;80.18457;962.8957;;;;
2019/05/29 10:40:20;;;;;;;11.1;10.1;;;;;;;12.56;79.76855;963.0195;;;;
2019/05/29 10:42:53;;;;;;;10.5;9.6;;;;;;;12.85;81.41602;962.968;;;;
2019/05/29 10:45:20;;;;;;;11.1;10.1;;;;;;;12.72;79.55469;962.9487;;;;
2019/05/29 10:47:45;;;;;;;11.2;10.2;;;;;;;12.66;79.87891;963.0149;;;;
2019/05/29 10:50:22;;;;;;;11.4;10.3;;;;;;;12.64;79.73535;962.9997;;;;
2019/05/29 10:52:47;;;;;;;11.8;10.7;;;;;;;12.63;80.62598;962.9785;;;;
2019/05/29 10:55:13;;;;;;;12.1;10.8;;;;;;;12.65;81.51758;963.0946;;;;
2019/05/29 10:57:38;;;;;;;11.9;10.7;;;;;;;12.29;81.40625;963.07;;;;
2019/05/29 11:00:03;;;;;;;11.8;10.6;;;;;;;12.4;83.03223;963.0994;;;;
2019/05/29 11:02:28;;;;;;;10.8;9.9;;;;;;;12.46;81.41309;963.0817;;;;
2019/05/29 11:04:54;;;;;;;12.3;11.2;;;;;;;12.5;82.78418;963.1428;;;;
2019/05/29 11:07:19;;;;;;;12.2;11.1;;;;;;;12.59;82.0166;963.1217;;;;
2019/05/29 11:09:44;;;;;;;12;10.8;;;;;;;12.48;81.06934;963.1713;;;;
2019/05/29 11:12:09;;;;;;;10.9;9.8;;;;;;;12.57;79.64063;963.1369;;;;
2019/05/29 11:14:41;;;;;;;11.4;10;;;;;;;12.62;80.26367;963.1889;;;;
2019/05/29 11:17:03;;;;;;;9.2;8.4;;;;;;;12.56;78.64453;963.1945;;;;
2019/05/29 11:19:36;;;;;;;8.4;7.6;;;;;;;12.87;75.44043;963.1965;;;;
2019/05/29 11:22:01;;;;;;;7.4;6.7;;;;;;;12.74;75.3457;963.1476;;;;
2019/05/29 11:24:32;;;;;;;6.8;6.2;;;;;;;12.82;73.49707;963.2062;;;;
2019/05/29 11:27:00;;;;;;;6.5;5.8;;;;;;;12.73;72.69629;963.2318;;;;
2019/05/29 11:29:40;;;;;;;6.2;5.4;;;;;;;12.88;73.49609;963.1172;;;;
2019/05/29 11:32:05;;;;;;;6;5.4;;;;;;;12.9;70.82813;963.2028;;;;
2019/05/29 11:34:32;;;;;;;5.7;5.2;;;;;;;12.84;71.65137;963.2256;;;;
2019/05/29 11:36:57;;;;;;;6.6;6;;;;;;;13.13;73.41113;963.2036;;;;
2019/05/29 11:39:24;;;;;;;8.3;6.5;;;;;;;13.16;72.14355;963.166;;;;
2019/05/29 11:41:49;;;;;;;6.2;5.6;;;;;;;13.07;70.27539;963.2134;;;;
2019/05/29 11:44:15;;;;;;;6.1;5.6;;;;;;;13.19;70.83984;963.2023;;;;
2019/05/29 11:46:40;;;;;;;6.3;5.7;;;;;;;13.27;70.41309;963.2216;;;;
2019/05/29 11:49:05;;;;;;;6.2;5.3;;;;;;;13.29;67.7041;963.1942;;;;
2019/05/29 11:51:31;;;;;;;5.9;5.1;;;;;;;13.14;68.35352;963.29;;;;
2019/05/29 11:53:56;;;;;;;6.5;5.4;;;;;;;13.35;71.53711;963.236;;;;
2019/05/29 11:56:23;;;;;;;8.3;6.6;;;;;;;13.29;68.42285;963.1942;;;;
2019/05/29 11:58:48;;;;;;;6.7;6;;;;;;;13.61;70.28125;963.291;;;;
2019/05/29 12:01:14;;;;;;;7;6.3;;;;;;;13.57;70.77344;963.3028;;;;
2019/05/29 12:03:41;;;;;;;6.7;6.1;;;;;;;13.83;66.91992;963.2784;;;;
2019/05/29 12:06:18;;;;;;;6.8;6.2;;;;;;;13.79;69.5;963.278;;;;
2019/05/29 12:08:44;;;;;;;7.9;6;;;;;;;14.01;67.28418;963.3011;;;;
2019/05/29 12:11:12;;;;;;;6.6;6;;;;;;;14.13;66.38477;963.2942;;;;
2019/05/29 12:13:57;;;;;;;5.9;5.4;;;;;;;14.4;65.30078;963.1979;;;;
2019/05/29 12:16:22;;;;;;;5.5;5;;;;;;;14.43;66.67383;963.1605;;;;
2019/05/29 12:18:50;;;;;;;6.8;5.3;;;;;;;14.67;66.13086;963.2377;;;;
2019/05/29 12:21:16;;;;;;;6.5;5.9;;;;;;;14.57;65.11719;963.1688;;;;
2019/05/29 12:23:53;;;;;;;6.4;5.8;;;;;;;14.6;63.66895;963.1608;;;;
2019/05/29 12:26:18;;;;;;;5.5;5;;;;;;;14.79;62.34961;963.1641;;;;
2019/05/29 12:28:50;;;;;;;5.1;4.5;;;;;;;14.93;62.11328;963.1202;;;;
2019/05/29 12:31:15;;;;;;;5.6;4.2;;;;;;;14.89;58.87598;963.1106;;;;
2019/05/29 12:33:40;;;;;;;5.4;4.2;;;;;;;14.81;59.3291;963.1627;;;;
2019/05/29 12:36:05;;;;;;;5.9;4.1;;;;;;;14.92;59.99609;963.1248;;;;
2019/05/29 12:38:30;;;;;;;6;4.8;;;;;;;14.96;60.36133;963.1171;;;;
2019/05/29 12:40:56;;;;;;;6.1;4;;;;;;;15.2;59.12695;963.1066;;;;
2019/05/29 12:43:21;;;;;;;4.8;3.6;;;;;;;15.49;56.74512;963.1335;;;;
2019/05/29 12:45:46;;;;;;;4.1;3.7;;;;;;;15.61;56.58496;963.1219;;;;
2019/05/29 12:48:11;;;;;;;4.4;3.6;;;;;;;15.66;57.84961;963.0992;;;;
2019/05/29 12:50:45;;;;;;;3.8;3.1;;;;;;;15.51;56.53906;963.105;;;;
2019/05/29 12:53:09;;;;;;;4;3;;;;;;;15.81;56.06445;963.0969;;;;
2019/05/29 12:55:34;;;;;;;3.3;2.9;;;;;;;16.08;55.20215;963.1431;;;;
2019/05/29 12:57:59;;;;;;;4.2;3.3;;;;;;;16.16;55.43262;963.1353;;;;
2019/05/29 13:00:25;;;;;;;3.9;3.1;;;;;;;15.75;56.24316;963.1559;;;;
2019/05/29 13:02:50;;;;;;;3.8;3.4;;;;;;;15.88;54.89648;963.1464;;;;
2019/05/29 13:05:15;;;;;;;3.5;3.2;;;;;;;15.79;57.4834;963.1255;;;;
2019/05/29 13:07:40;;;;;;;3.8;3.4;;;;;;;16.18;55.59863;963.1113;;;;
2019/05/29 13:10:05;;;;;;;3.7;3.4;;;;;;;15.74;56.39258;963.1789;;;;
2019/05/29 13:12:42;;;;;;;4.2;3.6;;;;;;;15.87;55.7002;963.1301;;;;
2019/05/29 13:15:09;;;;;;;4.8;4.1;;;;;;;15.66;57.37207;963.1477;;;;
2019/05/29 13:17:35;;;;;;;5.2;4.6;;;;;;;15.82;58.44238;963.2276;;;;
2019/05/29 13:20:02;;;;;;;4.4;4;;;;;;;15.6;58.61035;963.2017;;;;
2019/05/29 13:22:27;;;;;;;5.4;4.4;;;;;;;15.32;57.3623;963.2083;;;;
2019/05/29 13:24:52;;;;;;;5.7;5.1;;;;;;;15.15;59.48145;963.2333;;;;
2019/05/29 13:27:19;;;;;;;4.8;4.3;;;;;;;14.98;61.50488;963.2459;;;;
2019/05/29 13:29:53;;;;;;;4.3;3.8;;;;;;;14.97;60.03711;963.2172;;;;
2019/05/29 13:32:23;;;;;;;4.2;3.5;;;;;;;14.67;61.33203;963.2861;;;;
2019/05/29 13:34:49;;;;;;;6.5;3.6;;;;;;;14.6;61.36914;963.3273;;;;
2019/05/29 13:37:23;;;;;;;4.6;3.7;;;;;;;14.49;62.43457;963.3513;;;;
2019/05/29 13:39:48;;;;;;;3.8;3.4;;;;;;;14.45;63.25195;963.3592;;;;
2019/05/29 13:42:37;;;;;;;3.9;3.5;;;;;;;14.42;63.51563;963.3753;;;;
2019/05/29 13:45:15;;;;;;;5.6;3.4;;;;;;;14.3;63.98438;963.3478;;;;
2019/05/29 13:47:39;;;;;;;5.4;3.5;;;;;;;14.14;63.77539;963.3631;;;;
2019/05/29 13:50:10;;;;;;;5;3.1;;;;;;;14.09;64.39453;963.4247;;;;
2019/05/29 13:52:35;;;;;;;3.8;3.4;;;;;;;14.21;64.71582;963.4083;;;;
2019/05/29 13:55:01;;;;;;;3.8;3.4;;;;;;;14.08;65.20605;963.4608;;;;
2019/05/29 13:57:42;;;;;;;4.9;3.9;;;;;;;13.99;66.54004;963.5252;;;;
2019/05/29 14:00:08;;;;;;;4.4;3.6;;;;;;;13.84;66.7832;963.6053;;;;
2019/05/29 14:02:33;;;;;;;4.3;3.5;;;;;;;14.02;66.57715;963.6191;;;;
2019/05/29 14:05:00;;;;;;;3.9;3.3;;;;;;;13.98;67.34961;963.6227;;;;
2019/05/29 14:07:25;;;;;;;3.9;3.4;;;;;;;14.01;67.7373;963.7288;;;;
2019/05/29 14:09:53;;;;;;;4.4;3;;;;;;;14;68.70898;963.7255;;;;
2019/05/29 14:12:18;;;;;;;4;2.9;;;;;;;13.93;68.57031;963.7146;;;;
2019/05/29 14:14:43;;;;;;;3.3;2.4;;;;;;;14.02;69.20117;963.7673;;;;
2019/05/29 14:17:08;;;;;;;4.5;2.8;;;;;;;13.96;70.15332;963.8297;;;;
2019/05/29 14:19:47;;;;;;;4.6;2.6;;;;;;;13.78;69.46387;963.8814;;;;
2019/05/29 14:22:12;;;;;;;3.8;2.7;;;;;;;13.73;69.61719;963.8645;;;;
2019/05/29 14:24:39;;;;;;;4.8;3;;;;;;;13.89;70.22363;963.8494;;;;
2019/05/29 14:27:04;;;;;;;6.9;3.3;;;;;;;13.93;69.24316;963.9686;;;;
2019/05/29 14:29:29;;;;;;;4.4;2.4;;;;;;;13.79;68.79297;963.9506;;;;
2019/05/29 14:31:57;;;;;;;3.7;2.5;;;;;;;13.83;69.67969;963.9034;;;;
2019/05/29 14:34:22;;;;;;;2.9;2.5;;;;;;;13.82;69.6084;963.9788;;;;
2019/05/29 14:36:48;;;;;;;5.5;3.9;;;;;;;13.73;69.91895;964.0047;;;;
2019/05/29 14:39:13;;;;;;;3.1;2.8;;;;;;;13.69;69.61035;964.0563;;;;
2019/05/29 14:41:38;;;;;;;4.8;2.9;;;;;;;13.71;69.38281;964.0198;;;;
2019/05/29 14:44:03;;;;;;;4.1;2.7;;;;;;;13.52;68.75;964.05;;;;
2019/05/29 14:46:28;;;;;;;3.4;2.5;;;;;;;13.55;70.21484;964.0692;;;;
2019/05/29 14:49:06;;;;;;;3.5;2.8;;;;;;;13.64;68.12988;964.0129;;;;
2019/05/29 14:51:31;;;;;;;4;2.7;;;;;;;13.63;67.89746;964.0399;;;;
2019/05/29 14:53:57;;;;;;;3.2;2.5;;;;;;;13.51;68.83984;964.0644;;;;
2019/05/29 14:56:22;;;;;;;2.8;2.5;;;;;;;13.66;69.2002;964.0198;;;;